createdAt,value
2019-05-18T00:01:25.716Z,2.92
2019-05-18T00:03:54.350Z,2.60
2019-05-18T00:06:25.068Z,2.60
2019-05-18T00:08:53.758Z,3.00
2019-05-18T00:11:22.523Z,2.72
2019-05-18T00:13:51.190Z,2.77
2019-05-18T00:16:19.880Z,2.45
2019-05-18T00:18:48.574Z,3.30
2019-05-18T00:21:17.319Z,2.92
2019-05-18T00:23:45.998Z,2.52
2019-05-18T00:26:14.578Z,2.50
2019-05-18T00:28:43.371Z,2.47
2019-05-18T00:31:11.995Z,2.77
2019-05-18T00:33:40.562Z,2.75
2019-05-18T00:36:09.236Z,2.80
2019-05-18T00:38:37.811Z,2.52
2019-05-18T00:41:09.219Z,2.80
2019-05-18T00:43:37.834Z,2.50
2019-05-18T00:46:06.519Z,2.50
2019-05-18T00:48:35.121Z,2.60
2019-05-18T00:51:03.790Z,2.95
2019-05-18T00:53:32.469Z,2.65
2019-05-18T00:56:02.449Z,2.95
2019-05-18T00:58:31.028Z,2.90
2019-05-18T01:00:59.746Z,2.58
2019-05-18T01:03:29.142Z,3.15
2019-05-18T01:05:59.534Z,2.37
2019-05-18T01:08:28.238Z,3.47
2019-05-18T01:10:56.856Z,3.12
2019-05-18T01:13:25.418Z,3.30
2019-05-18T01:15:54.107Z,3.02
2019-05-18T01:18:22.682Z,3.55
2019-05-18T01:20:52.168Z,3.55
2019-05-18T01:23:20.846Z,3.47
2019-05-18T01:25:51.842Z,3.72
2019-05-18T01:28:20.529Z,3.72
2019-05-18T01:30:49.212Z,4.00
2019-05-18T01:33:19.567Z,3.60
2019-05-18T01:35:48.248Z,3.10
2019-05-18T01:38:16.820Z,3.70
2019-05-18T01:40:45.545Z,3.50
2019-05-18T01:43:14.281Z,3.47
2019-05-18T01:45:42.953Z,3.35
2019-05-18T01:48:14.478Z,3.75
2019-05-18T01:50:42.741Z,3.58
2019-05-18T01:53:11.676Z,4.30
2019-05-18T01:55:40.753Z,4.17
2019-05-18T01:58:10.960Z,3.25
2019-05-18T02:00:42.465Z,4.08
2019-05-18T02:03:11.170Z,4.23
2019-05-18T02:05:39.781Z,3.47
2019-05-18T02:08:08.306Z,3.75
2019-05-18T02:10:36.975Z,3.67
2019-05-18T02:13:05.676Z,3.62
2019-05-18T02:15:34.467Z,3.80
2019-05-18T02:18:03.006Z,4.05
2019-05-18T02:20:34.494Z,3.83
2019-05-18T02:23:03.059Z,3.73
2019-05-18T02:25:31.760Z,3.92
2019-05-18T02:28:00.402Z,4.00
2019-05-18T02:30:29.863Z,4.00
2019-05-18T02:32:58.419Z,3.93
2019-05-18T02:35:27.123Z,4.17
2019-05-18T02:37:57.348Z,3.58
2019-05-18T02:40:26.016Z,3.72
2019-05-18T02:42:54.792Z,4.15
2019-05-18T02:45:23.531Z,4.20
2019-05-18T02:47:53.854Z,3.85
2019-05-18T02:50:22.561Z,4.00
2019-05-18T02:52:51.107Z,3.70
2019-05-18T02:55:19.650Z,3.65
2019-05-18T02:57:48.198Z,4.45
2019-05-18T03:00:16.885Z,3.98
2019-05-18T03:02:45.458Z,4.10
2019-05-18T03:05:34.952Z,3.77
2019-05-18T03:08:03.639Z,3.80
2019-05-18T03:10:33.091Z,3.85
2019-05-18T03:13:01.723Z,3.87
2019-05-18T03:15:30.419Z,3.58
2019-05-18T03:17:59.123Z,4.15
2019-05-18T03:20:27.719Z,3.95
2019-05-18T03:22:56.282Z,3.55
2019-05-18T03:25:24.854Z,4.20
2019-05-18T03:27:53.821Z,3.75
2019-05-18T03:30:22.500Z,3.70
2019-05-18T03:32:51.341Z,4.23
2019-05-18T03:35:19.938Z,3.90
2019-05-18T03:37:48.517Z,3.67
2019-05-18T03:40:17.181Z,4.33
2019-05-18T03:42:45.816Z,3.75
2019-05-18T03:45:14.605Z,4.25
2019-05-18T03:47:43.193Z,3.90
2019-05-18T03:50:12.069Z,3.92
2019-05-18T03:52:40.542Z,3.52
2019-05-18T03:55:09.833Z,4.25
2019-05-18T03:57:38.508Z,4.05
2019-05-18T04:00:07.826Z,3.87
2019-05-18T04:02:36.467Z,3.95
2019-05-18T04:05:07.065Z,3.53
2019-05-18T04:07:35.708Z,4.00
2019-05-18T04:10:05.660Z,3.92
2019-05-18T04:12:34.280Z,4.03
2019-05-18T04:15:03.172Z,3.47
2019-05-18T04:17:31.839Z,3.98
2019-05-18T04:20:00.463Z,4.00
2019-05-18T04:22:29.034Z,3.60
2019-05-18T04:24:57.638Z,3.85
2019-05-18T04:27:26.167Z,4.00
2019-05-18T04:29:54.845Z,3.70
2019-05-18T04:32:23.588Z,3.70
2019-05-18T04:34:52.351Z,3.67
2019-05-18T04:37:21.052Z,3.27
2019-05-18T04:39:49.623Z,3.70
2019-05-18T04:42:18.256Z,3.50
2019-05-18T04:44:46.874Z,3.47
2019-05-18T04:47:15.577Z,3.47
2019-05-18T04:49:44.128Z,4.05
2019-05-18T04:52:12.713Z,3.55
2019-05-18T04:54:41.266Z,3.75
2019-05-18T04:57:09.846Z,3.17
2019-05-18T04:59:38.600Z,3.50
2019-05-18T05:02:07.318Z,3.50
2019-05-18T05:04:36.058Z,3.72
2019-05-18T05:07:04.786Z,4.15
2019-05-18T05:09:33.305Z,3.95
2019-05-18T05:12:01.781Z,3.70
2019-05-18T05:14:31.218Z,2.95
2019-05-18T05:16:59.790Z,3.35
2019-05-18T05:19:29.818Z,3.47
2019-05-18T05:21:58.438Z,3.05
2019-05-18T05:24:26.992Z,3.20
2019-05-18T05:26:55.631Z,3.10
2019-05-18T05:29:24.338Z,3.17
2019-05-18T05:31:52.901Z,3.80
2019-05-18T05:34:21.565Z,3.12
2019-05-18T05:36:50.265Z,3.53
2019-05-18T05:39:18.983Z,3.60
2019-05-18T05:41:51.393Z,3.12
2019-05-18T05:44:20.051Z,3.22
2019-05-18T05:46:48.737Z,3.60
2019-05-18T05:49:17.385Z,3.45
2019-05-18T05:51:45.984Z,3.00
2019-05-18T05:54:14.937Z,3.23
2019-05-18T05:56:43.646Z,3.35
2019-05-18T05:59:12.343Z,3.27
2019-05-18T06:01:40.938Z,2.90
2019-05-18T06:04:09.486Z,3.02
2019-05-18T06:06:38.127Z,3.40
2019-05-18T06:09:07.321Z,3.08
2019-05-18T06:11:36.030Z,4.00
2019-05-18T06:14:04.790Z,4.78
2019-05-18T06:16:34.135Z,4.03
2019-05-18T06:19:02.878Z,5.40
2019-05-18T06:21:31.593Z,4.28
2019-05-18T06:24:00.149Z,3.58
2019-05-18T06:26:28.821Z,3.20
2019-05-18T06:28:57.328Z,3.37
2019-05-18T06:31:26.003Z,2.95
2019-05-18T06:33:54.671Z,3.27
2019-05-18T06:36:23.233Z,3.35
2019-05-18T06:38:52.141Z,2.85
2019-05-18T06:41:20.787Z,3.50
2019-05-18T06:43:49.337Z,3.45
2019-05-18T06:46:18.011Z,3.47
2019-05-18T06:48:46.597Z,3.22
2019-05-18T06:51:15.221Z,3.23
2019-05-18T06:53:43.820Z,3.12
2019-05-18T06:56:13.710Z,3.42
2019-05-18T06:58:42.831Z,3.50
2019-05-18T07:01:12.298Z,3.67
2019-05-18T07:03:41.024Z,3.30
2019-05-18T07:06:09.750Z,3.42
2019-05-18T07:08:38.404Z,3.45
2019-05-18T07:11:07.089Z,3.80
2019-05-18T07:13:35.811Z,3.58
2019-05-18T07:16:04.363Z,3.22
2019-05-18T07:18:32.913Z,3.70
2019-05-18T07:21:01.418Z,3.72
2019-05-18T07:23:30.063Z,4.00
2019-05-18T07:26:00.149Z,4.55
2019-05-18T07:28:28.721Z,4.25
2019-05-18T07:30:57.405Z,4.33
2019-05-18T07:33:26.025Z,4.70
2019-05-18T07:35:54.770Z,4.37
2019-05-18T07:38:23.363Z,4.72
2019-05-18T07:40:52.141Z,5.00
2019-05-18T07:43:20.860Z,4.60
2019-05-18T07:45:49.584Z,5.50
2019-05-18T07:48:18.281Z,5.07
2019-05-18T07:50:47.002Z,4.50
2019-05-18T07:53:15.618Z,4.92
2019-05-18T07:55:44.211Z,4.92
2019-05-18T07:58:12.882Z,4.55
2019-05-18T08:00:41.548Z,4.83
2019-05-18T08:03:10.224Z,3.98
2019-05-18T08:05:38.779Z,4.50
2019-05-18T08:08:07.533Z,4.60
2019-05-18T08:10:39.258Z,4.23
2019-05-18T08:13:08.089Z,4.50
2019-05-18T08:15:37.206Z,5.00
2019-05-18T08:18:06.180Z,4.83
2019-05-18T08:20:34.798Z,4.33
2019-05-18T08:23:03.370Z,4.70
2019-05-18T08:25:31.990Z,4.55
2019-05-18T08:28:00.771Z,4.92
2019-05-18T08:30:29.536Z,4.95
2019-05-18T08:32:58.093Z,4.60
2019-05-18T08:35:27.402Z,4.50
2019-05-18T08:37:56.315Z,4.30
2019-05-18T08:40:25.006Z,5.10
2019-05-18T08:42:54.154Z,4.65
2019-05-18T08:45:24.743Z,4.65
2019-05-18T08:47:53.426Z,4.92
2019-05-18T08:50:22.143Z,4.70
2019-05-18T08:52:50.786Z,4.42
2019-05-18T08:55:19.440Z,4.40
2019-05-18T08:57:48.061Z,4.65
2019-05-18T09:00:17.073Z,6.25
2019-05-18T09:02:45.631Z,5.97
2019-05-18T09:05:15.265Z,6.35
2019-05-18T09:07:43.991Z,6.35
2019-05-18T09:10:12.994Z,6.35
2019-05-18T09:12:41.747Z,6.40
2019-05-18T09:15:10.807Z,6.80
2019-05-18T09:17:39.397Z,6.97
2019-05-18T09:20:08.685Z,6.87
2019-05-18T09:22:37.399Z,6.80
2019-05-18T09:25:07.099Z,7.05
2019-05-18T09:27:36.254Z,6.90
2019-05-18T09:30:10.050Z,7.00
2019-05-18T09:32:39.385Z,6.44
2019-05-18T09:35:08.849Z,7.95
2019-05-18T09:37:37.543Z,7.03
2019-05-18T09:40:07.657Z,7.70
2019-05-18T09:42:36.309Z,7.87
2019-05-18T09:45:09.906Z,9.15
2019-05-18T09:47:42.368Z,8.93
2019-05-18T09:50:12.670Z,9.73
2019-05-18T09:52:45.531Z,9.10
2019-05-18T09:55:11.886Z,9.48
2019-05-18T09:57:40.636Z,9.90
2019-05-18T10:00:11.355Z,9.20
2019-05-18T10:02:40.997Z,9.70
2019-05-18T10:05:11.217Z,10.08
2019-05-18T10:07:39.904Z,9.35
2019-05-18T10:10:09.042Z,9.90
2019-05-18T10:12:38.083Z,10.45
2019-05-18T10:15:09.616Z,11.28
2019-05-18T10:17:44.270Z,11.60
2019-05-18T10:20:20.531Z,12.47
2019-05-18T10:22:55.605Z,12.88
2019-05-18T10:25:15.690Z,12.78
2019-05-18T10:27:44.262Z,11.60
2019-05-18T10:30:13.398Z,12.73
2019-05-18T10:32:42.122Z,13.60
2019-05-18T10:35:11.530Z,13.07
2019-05-18T10:37:40.118Z,13.95
2019-05-18T10:40:09.787Z,13.68
2019-05-18T10:42:38.550Z,14.73
2019-05-18T10:45:08.195Z,14.15
2019-05-18T10:47:36.798Z,13.70
2019-05-18T10:50:07.307Z,14.25
2019-05-18T10:52:36.079Z,14.25
2019-05-18T10:55:06.759Z,15.15
2019-05-18T10:57:35.355Z,14.95
2019-05-18T11:00:09.565Z,13.68
2019-05-18T11:02:38.241Z,13.57
2019-05-18T11:05:08.336Z,14.95
2019-05-18T11:07:36.952Z,14.05
2019-05-18T11:10:09.312Z,14.90
2019-05-18T11:15:09.690Z,14.65
2019-05-18T11:17:38.308Z,15.03
2019-05-18T11:20:11.181Z,14.78
2019-05-18T11:22:39.904Z,15.93
2019-05-18T11:25:09.259Z,15.13
2019-05-18T11:27:37.927Z,16.23
2019-05-18T11:30:07.756Z,14.98
2019-05-18T11:32:37.306Z,14.38
2019-05-18T11:35:07.565Z,14.25
2019-05-18T11:37:36.270Z,13.93
2019-05-18T11:40:07.068Z,14.60
2019-05-18T11:42:35.790Z,14.07
2019-05-18T11:45:12.631Z,14.93
2019-05-18T11:47:41.317Z,15.00
2019-05-18T11:50:11.317Z,14.10
2019-05-18T11:52:40.263Z,13.65
2019-05-18T11:55:12.101Z,13.55
2019-05-18T11:57:40.718Z,12.50
2019-05-18T12:00:12.833Z,12.20
2019-05-18T12:05:09.705Z,11.15
2019-05-18T12:07:38.333Z,12.33
2019-05-18T12:10:08.062Z,12.10
2019-05-18T12:12:36.876Z,11.93
2019-05-18T12:15:09.350Z,11.50
2019-05-18T12:17:38.048Z,12.07
2019-05-18T12:20:08.505Z,11.78
2019-05-18T12:22:37.222Z,12.00
2019-05-18T12:25:06.985Z,12.60
2019-05-18T12:27:35.642Z,12.53
2019-05-18T12:30:07.437Z,12.40
2019-05-18T12:32:36.895Z,13.45
2019-05-18T12:35:08.177Z,12.73
2019-05-18T12:37:36.886Z,13.68
2019-05-18T12:40:07.717Z,13.25
2019-05-18T12:42:36.417Z,13.22
2019-05-18T12:45:06.344Z,12.85
2019-05-18T12:47:35.097Z,12.95
2019-05-18T12:50:04.803Z,12.10
2019-05-18T12:52:33.533Z,12.43
2019-05-18T12:55:02.118Z,12.75
2019-05-18T12:57:30.645Z,13.62
2019-05-18T13:00:00.193Z,13.05
2019-05-18T13:02:28.947Z,12.75
2019-05-18T13:04:57.505Z,12.95
2019-05-18T13:07:26.137Z,12.33
2019-05-18T13:09:54.727Z,12.43
2019-05-18T13:12:23.426Z,13.22
2019-05-18T13:14:52.081Z,12.55
2019-05-18T13:17:21.373Z,12.33
2019-05-18T13:19:52.390Z,12.05
2019-05-18T13:22:21.157Z,11.65
2019-05-18T13:24:52.131Z,11.73
2019-05-18T13:27:20.105Z,11.78
2019-05-18T13:29:48.738Z,12.07
2019-05-18T13:32:20.025Z,12.63
2019-05-18T13:34:48.587Z,12.50
2019-05-18T13:37:20.283Z,12.70
2019-05-18T13:39:49.000Z,12.75
2019-05-18T13:42:17.673Z,11.25
2019-05-18T13:44:47.048Z,11.68
2019-05-18T13:47:15.796Z,11.28
2019-05-18T13:49:44.372Z,11.48
2019-05-18T13:52:13.072Z,11.40
2019-05-18T13:54:41.655Z,11.73
2019-05-18T13:57:10.283Z,10.53
2019-05-18T13:59:39.018Z,10.95
2019-05-18T14:02:07.798Z,10.96
2019-05-18T14:04:36.571Z,10.40
2019-05-18T14:07:06.130Z,11.05
2019-05-18T14:09:34.828Z,10.72
2019-05-18T14:12:03.412Z,10.63
2019-05-18T14:14:32.074Z,10.03
2019-05-18T14:17:00.806Z,9.88
2019-05-18T14:19:31.660Z,10.17
2019-05-18T14:22:00.263Z,10.93
2019-05-18T14:24:28.915Z,9.90
2019-05-18T14:26:57.467Z,9.58
2019-05-18T14:29:26.087Z,9.90
2019-05-18T14:31:55.844Z,10.45
2019-05-18T14:34:26.053Z,10.65
2019-05-18T14:36:54.892Z,9.65
2019-05-18T14:39:23.585Z,9.83
2019-05-18T14:41:52.267Z,10.03
2019-05-18T14:44:20.956Z,9.45
2019-05-18T14:46:49.693Z,10.30
2019-05-18T14:49:18.457Z,10.13
2019-05-18T14:51:47.066Z,9.65
2019-05-18T14:54:15.570Z,9.93
2019-05-18T14:56:44.222Z,10.33
2019-05-18T14:59:12.934Z,9.40
2019-05-18T15:01:41.614Z,9.18
2019-05-18T15:04:10.304Z,9.80
2019-05-18T15:06:38.942Z,10.10
2019-05-18T15:09:08.252Z,9.88
2019-05-18T15:11:36.962Z,10.55
2019-05-18T15:14:08.619Z,10.53
2019-05-18T15:19:06.631Z,9.45
2019-05-18T15:21:35.480Z,9.58
2019-05-18T15:24:04.098Z,9.65
2019-05-18T15:26:32.663Z,9.55
2019-05-18T15:29:01.227Z,9.73
2019-05-18T15:31:29.993Z,9.40
2019-05-18T15:33:58.541Z,9.75
2019-05-18T15:36:27.190Z,9.77
2019-05-18T15:38:55.813Z,10.50
2019-05-18T15:41:24.553Z,9.53
2019-05-18T15:43:53.132Z,10.03
2019-05-18T15:46:21.797Z,10.00
2019-05-18T15:48:50.482Z,9.38
2019-05-18T15:51:20.701Z,9.57
2019-05-18T15:53:50.396Z,9.78
2019-05-18T15:56:19.126Z,9.15
2019-05-18T15:58:47.846Z,9.23
2019-05-18T16:01:16.508Z,9.18
2019-05-18T16:03:45.072Z,10.10
2019-05-18T16:06:13.714Z,9.25
2019-05-18T16:08:42.282Z,9.73
2019-05-18T16:11:11.050Z,10.28
2019-05-18T16:13:39.682Z,9.75
2019-05-18T16:16:08.268Z,9.90
2019-05-18T16:18:36.907Z,9.80
2019-05-18T16:21:05.543Z,9.30
2019-05-18T16:23:37.018Z,9.83
2019-05-18T16:26:20.410Z,9.80
2019-05-18T16:28:35.893Z,10.88
2019-05-18T16:31:04.658Z,10.40
2019-05-18T16:33:33.319Z,10.30
2019-05-18T16:36:02.175Z,10.82
2019-05-18T16:38:30.829Z,10.68
2019-05-18T16:40:59.686Z,10.23
2019-05-18T16:43:28.361Z,10.32
2019-05-18T16:45:57.081Z,11.20
2019-05-18T16:48:25.775Z,10.58
2019-05-18T16:50:54.503Z,11.25
2019-05-18T16:53:23.125Z,11.13
2019-05-18T16:55:52.211Z,10.72
2019-05-18T16:58:20.778Z,11.18
2019-05-18T17:00:49.978Z,11.10
2019-05-18T17:03:18.670Z,10.85
2019-05-18T17:05:47.270Z,11.73
2019-05-18T17:08:16.022Z,11.50
2019-05-18T17:10:44.863Z,11.48
2019-05-18T17:13:16.294Z,11.50
2019-05-18T17:15:45.764Z,11.93
2019-05-18T17:18:14.486Z,11.53
2019-05-18T17:20:43.843Z,12.43
2019-05-18T17:23:12.440Z,12.35
2019-05-18T17:25:41.137Z,11.88
2019-05-18T17:28:09.782Z,12.00
2019-05-18T17:30:38.512Z,12.58
2019-05-18T17:33:07.178Z,12.20
2019-05-18T17:35:35.842Z,12.55
2019-05-18T17:38:04.604Z,12.93
2019-05-18T17:40:34.251Z,12.27
2019-05-18T17:43:05.033Z,12.28
2019-05-18T17:45:33.372Z,12.10
2019-05-18T17:48:01.961Z,11.60
2019-05-18T17:50:30.562Z,11.80
2019-05-18T17:52:59.218Z,12.20
2019-05-18T17:55:28.000Z,12.40
2019-05-18T17:57:56.646Z,12.03
2019-05-18T18:00:25.370Z,13.03
2019-05-18T18:02:54.202Z,13.15
2019-05-18T18:05:22.859Z,12.85
2019-05-18T18:07:55.563Z,12.93
2019-05-18T18:10:23.313Z,12.60
2019-05-18T18:12:51.926Z,12.25
2019-05-18T18:15:20.626Z,12.73
2019-05-18T18:17:49.341Z,12.43
2019-05-18T18:20:18.388Z,12.13
2019-05-18T18:22:49.943Z,13.45
2019-05-18T18:25:18.743Z,12.23
2019-05-18T18:27:47.437Z,12.73
2019-05-18T18:30:16.225Z,13.72
2019-05-18T18:32:44.786Z,14.70
2019-05-18T18:35:13.519Z,13.95
2019-05-18T18:37:42.105Z,13.73
2019-05-18T18:40:10.745Z,13.80
2019-05-18T18:42:39.530Z,14.07
2019-05-18T18:45:09.657Z,13.10
2019-05-18T18:47:38.355Z,14.70
2019-05-18T18:50:07.574Z,14.30
2019-05-18T18:52:37.855Z,13.57
2019-05-18T18:55:09.527Z,14.15
2019-05-18T19:00:08.088Z,12.77
2019-05-18T19:02:36.989Z,13.48
2019-05-18T19:05:07.261Z,13.18
2019-05-18T19:07:35.893Z,13.60
2019-05-18T19:10:05.843Z,14.54
2019-05-18T19:12:34.908Z,13.15
2019-05-18T19:15:05.403Z,12.50
2019-05-18T19:17:34.368Z,12.44
2019-05-18T19:20:03.236Z,13.05
2019-05-18T19:22:31.788Z,13.53
2019-05-18T19:25:00.473Z,14.35
2019-05-18T19:27:29.055Z,14.90
2019-05-18T19:29:57.698Z,14.85
2019-05-18T19:32:26.285Z,14.95
2019-05-18T19:34:57.773Z,15.10
2019-05-18T19:37:26.646Z,15.50
2019-05-18T19:39:56.790Z,14.18
2019-05-18T19:42:25.516Z,13.95
2019-05-18T19:44:54.221Z,13.25
2019-05-18T19:47:22.799Z,14.15
2019-05-18T19:49:51.542Z,13.85
2019-05-18T19:52:20.131Z,14.93
2019-05-18T19:54:50.462Z,13.15
2019-05-18T19:57:19.115Z,13.20
2019-05-18T19:59:47.716Z,11.78
2019-05-18T20:02:18.486Z,11.14
2019-05-18T20:05:05.654Z,11.10
2019-05-18T20:07:17.118Z,11.57
2019-05-18T20:09:45.793Z,12.20
2019-05-18T20:12:14.330Z,10.63
2019-05-18T20:14:42.959Z,10.90
2019-05-18T20:17:11.684Z,11.97
2019-05-18T20:19:40.476Z,11.37
2019-05-18T20:22:09.251Z,11.48
2019-05-18T20:24:37.933Z,11.80
2019-05-18T20:27:06.561Z,12.13
2019-05-18T20:29:35.181Z,12.85
2019-05-18T20:32:03.915Z,12.75
2019-05-18T20:34:32.566Z,13.60
2019-05-18T20:37:01.230Z,13.53
2019-05-18T20:39:30.576Z,14.05
2019-05-18T20:41:59.290Z,14.43
2019-05-18T20:44:27.886Z,14.07
2019-05-18T20:46:57.075Z,14.58
2019-05-18T20:49:25.815Z,14.40
2019-05-18T20:51:54.363Z,13.32
2019-05-18T20:54:22.990Z,13.53
2019-05-18T20:56:51.571Z,14.73
2019-05-18T20:59:20.161Z,13.53
2019-05-18T21:01:48.867Z,12.93
2019-05-18T21:04:17.635Z,12.03
2019-05-18T21:06:46.263Z,12.40
2019-05-18T21:09:14.905Z,12.88
2019-05-18T21:11:44.170Z,12.85
2019-05-18T21:14:12.783Z,12.82
2019-05-18T21:16:41.454Z,13.32
2019-05-18T21:19:10.033Z,13.53
2019-05-18T21:21:38.582Z,13.45
2019-05-18T21:24:08.733Z,12.55
2019-05-18T21:26:37.336Z,14.10
2019-05-18T21:29:06.115Z,13.60
2019-05-18T21:31:34.702Z,12.68
2019-05-18T21:34:04.198Z,13.03
2019-05-18T21:36:32.923Z,14.40
2019-05-18T21:39:01.622Z,13.75
2019-05-18T21:41:49.597Z,14.50
2019-05-18T21:44:18.390Z,14.63
2019-05-18T21:46:47.078Z,14.78
2019-05-18T21:49:15.774Z,14.40
2019-05-18T21:51:44.500Z,14.80
2019-05-18T21:54:13.533Z,14.70
2019-05-18T21:56:42.096Z,15.07
2019-05-18T21:59:12.397Z,15.30
2019-05-18T22:01:41.141Z,15.08
2019-05-18T22:04:09.807Z,15.28
2019-05-18T22:06:40.308Z,15.08
2019-05-18T22:09:09.047Z,14.50
2019-05-18T22:11:37.687Z,14.75
2019-05-18T22:14:06.414Z,14.60
2019-05-18T22:16:35.073Z,15.43
2019-05-18T22:19:04.013Z,15.63
2019-05-18T22:21:32.687Z,16.65
2019-05-18T22:24:01.265Z,16.85
2019-05-18T22:26:29.886Z,17.25
2019-05-18T22:29:01.245Z,17.12
2019-05-18T22:31:29.892Z,17.35
2019-05-18T22:33:58.616Z,18.02
2019-05-18T22:36:27.336Z,17.82
2019-05-18T22:38:55.977Z,18.48
2019-05-18T22:41:24.618Z,18.85
2019-05-18T22:43:53.269Z,19.62
2019-05-18T22:46:22.022Z,18.00
2019-05-18T22:48:50.566Z,18.23
2019-05-18T22:51:20.062Z,19.13
2019-05-18T22:53:48.647Z,18.80
2019-05-18T22:56:17.200Z,18.92
2019-05-18T22:58:45.863Z,19.02
2019-05-18T23:01:14.573Z,19.23
2019-05-18T23:03:43.161Z,18.77
2019-05-18T23:06:13.317Z,17.82
2019-05-18T23:08:41.977Z,19.46
2019-05-18T23:11:10.613Z,18.85
2019-05-18T23:13:40.291Z,18.90
2019-05-18T23:16:09.024Z,19.30
2019-05-18T23:18:37.569Z,18.98
2019-05-18T23:21:06.183Z,19.53
2019-05-18T23:23:34.814Z,20.55
2019-05-18T23:26:03.536Z,21.02
2019-05-18T23:28:32.150Z,20.88
2019-05-18T23:31:00.915Z,20.27
2019-05-18T23:33:29.477Z,20.70
2019-05-18T23:35:58.097Z,21.15
2019-05-18T23:38:26.618Z,20.65
2019-05-18T23:40:55.278Z,19.80
2019-05-18T23:43:23.981Z,20.08
2019-05-18T23:45:52.664Z,19.42
2019-05-18T23:48:21.319Z,20.17
2019-05-18T23:50:49.946Z,20.65
2019-05-18T23:53:19.213Z,20.60
2019-05-18T23:55:47.872Z,21.10
2019-05-18T23:58:16.395Z,21.87
